createdAt,value
2023-01-31T00:01:43.961Z,0.50
2023-01-31T00:04:12.673Z,0.50
2023-01-31T00:06:43.310Z,0.40
2023-01-31T00:09:12.971Z,0.40
2023-01-31T00:11:40.303Z,0.40
2023-01-31T00:14:10.756Z,0.40
2023-01-31T00:16:38.493Z,0.40
2023-01-31T00:19:06.212Z,0.30
2023-01-31T00:21:33.869Z,0.30
2023-01-31T00:24:02.062Z,0.20
2023-01-31T00:26:33.983Z,0.20
2023-01-31T00:29:03.141Z,0.20
2023-01-31T00:31:32.473Z,0.20
2023-01-31T00:34:00.842Z,0.20
2023-01-31T00:36:31.288Z,0.20
2023-01-31T00:38:59.993Z,0.30
2023-01-31T00:41:29.171Z,0.30
2023-01-31T00:43:56.751Z,0.30
2023-01-31T00:46:24.333Z,0.30
2023-01-31T00:48:51.940Z,0.30
2023-01-31T00:51:19.769Z,0.30
2023-01-31T00:53:47.657Z,0.30
2023-01-31T00:56:17.869Z,0.30
2023-01-31T00:58:45.093Z,0.30
2023-01-31T01:01:16.335Z,0.20
2023-01-31T01:03:44.853Z,0.20
2023-01-31T01:06:12.533Z,0.20
2023-01-31T01:08:40.996Z,0.20
2023-01-31T01:11:14.730Z,0.10
2023-01-31T01:13:42.948Z,0.20
2023-01-31T01:16:16.720Z,0.20
2023-01-31T01:18:46.649Z,0.20
2023-01-31T01:21:20.476Z,0.20
2023-01-31T01:23:48.847Z,0.20
2023-01-31T01:26:18.844Z,0.20
2023-01-31T01:28:46.941Z,0.20
2023-01-31T01:31:16.570Z,0.20
2023-01-31T01:33:45.176Z,0.20
2023-01-31T01:36:17.489Z,0.10
2023-01-31T01:38:46.069Z,0.10
2023-01-31T01:41:15.288Z,0.20
2023-01-31T01:43:54.531Z,0.20
2023-01-31T01:46:24.907Z,0.10
2023-01-31T01:48:58.390Z,0.10
2023-01-31T01:51:27.423Z,0.10
2023-01-31T01:53:59.599Z,0.00
2023-01-31T01:56:34.162Z,0.00
2023-01-31T01:59:10.153Z,0.00
2023-01-31T02:01:38.506Z,0.00
2023-01-31T02:04:09.983Z,0.00
2023-01-31T02:06:37.309Z,-0.10
2023-01-31T02:09:09.598Z,-0.10
2023-01-31T02:11:36.982Z,0.00
2023-01-31T02:14:08.706Z,-0.10
2023-01-31T02:16:37.013Z,-0.10
2023-01-31T02:19:14.805Z,-0.10
2023-01-31T02:22:16.073Z,-0.10
2023-01-31T02:25:30.892Z,-0.20
2023-01-31T02:28:24.571Z,-0.10
2023-01-31T02:31:13.295Z,-0.20
2023-01-31T02:33:49.312Z,-0.20
2023-01-31T02:36:35.342Z,-0.10
2023-01-31T02:39:28.229Z,-0.10
2023-01-31T02:42:10.627Z,-0.10
2023-01-31T02:45:00.478Z,-0.10
2023-01-31T02:47:34.247Z,-0.10
2023-01-31T02:50:14.385Z,-0.10
2023-01-31T02:53:02.890Z,-0.20
2023-01-31T02:56:01.677Z,-0.10
2023-01-31T02:58:33.688Z,-0.20
2023-01-31T03:01:04.574Z,-0.20
2023-01-31T03:03:38.128Z,-0.30
2023-01-31T03:06:28.678Z,-0.40
2023-01-31T03:09:25.368Z,-0.40
2023-01-31T03:11:55.823Z,-0.30
2023-01-31T03:14:22.995Z,-0.20
2023-01-31T03:17:24.682Z,-0.20
2023-01-31T03:20:13.649Z,-0.20
2023-01-31T03:22:53.244Z,-0.30
2023-01-31T03:25:24.333Z,-0.30
2023-01-31T03:27:57.468Z,-0.30
2023-01-31T03:30:46.070Z,-0.30
2023-01-31T03:33:25.915Z,-0.30
2023-01-31T03:36:04.660Z,-0.30
2023-01-31T03:38:36.681Z,-0.20
2023-01-31T03:41:31.099Z,-0.20
2023-01-31T03:44:08.797Z,-0.30
2023-01-31T03:46:45.382Z,-0.30
2023-01-31T03:49:16.516Z,-0.30
2023-01-31T03:51:49.124Z,-0.20
2023-01-31T03:54:25.257Z,-0.20
2023-01-31T03:57:18.181Z,-0.20
2023-01-31T03:59:48.762Z,-0.20
2023-01-31T04:02:18.511Z,-0.20
2023-01-31T04:04:54.826Z,-0.20
2023-01-31T04:07:23.216Z,-0.20
2023-01-31T04:09:50.503Z,-0.20
2023-01-31T04:12:17.798Z,-0.30
2023-01-31T04:14:45.075Z,-0.30
2023-01-31T04:17:12.204Z,-0.30
2023-01-31T04:19:39.412Z,-0.30
2023-01-31T04:22:06.553Z,-0.40
2023-01-31T04:24:34.121Z,-0.30
2023-01-31T04:27:01.388Z,-0.30
2023-01-31T04:29:28.545Z,-0.30
2023-01-31T04:31:55.797Z,-0.40
2023-01-31T04:34:23.076Z,-0.40
2023-01-31T04:36:50.240Z,-0.50
2023-01-31T04:39:17.512Z,-0.40
2023-01-31T04:41:44.992Z,-0.50
2023-01-31T04:44:12.816Z,-0.50
2023-01-31T04:46:40.141Z,-0.60
2023-01-31T04:49:07.685Z,-0.70
2023-01-31T04:51:35.117Z,-0.60
2023-01-31T04:54:02.537Z,-0.70
2023-01-31T04:56:29.795Z,-0.60
2023-01-31T04:58:56.965Z,-0.60
2023-01-31T05:01:24.852Z,-0.50
2023-01-31T05:03:52.763Z,-0.50
2023-01-31T05:06:20.055Z,-0.50
2023-01-31T05:08:48.695Z,-0.50
2023-01-31T05:11:16.032Z,-0.50
2023-01-31T05:13:44.213Z,-0.60
2023-01-31T05:16:12.419Z,-0.60
2023-01-31T05:18:39.855Z,-0.60
2023-01-31T05:21:08.004Z,-0.70
2023-01-31T05:23:36.067Z,-0.70
2023-01-31T05:26:03.994Z,-0.80
2023-01-31T05:28:31.344Z,-0.80
2023-01-31T05:31:04.397Z,-0.80
2023-01-31T05:33:32.685Z,-0.80
2023-01-31T05:36:00.709Z,-0.90
2023-01-31T05:38:28.069Z,-0.90
2023-01-31T05:40:55.269Z,-0.90
2023-01-31T05:43:22.508Z,-1.00
2023-01-31T05:45:50.299Z,-1.00
2023-01-31T05:48:17.519Z,-0.90
2023-01-31T05:50:45.191Z,-1.00
2023-01-31T05:53:12.439Z,-1.00
2023-01-31T05:55:39.761Z,-1.10
2023-01-31T05:58:07.274Z,-1.00
2023-01-31T06:00:34.555Z,-1.10
2023-01-31T06:03:01.912Z,-1.10
2023-01-31T06:05:29.657Z,-1.10
2023-01-31T06:07:57.218Z,-1.00
2023-01-31T06:10:24.620Z,-1.00
2023-01-31T06:12:51.828Z,-1.00
2023-01-31T06:15:19.367Z,-1.00
2023-01-31T06:17:47.243Z,-1.00
2023-01-31T06:20:14.448Z,-1.00
2023-01-31T06:22:42.392Z,-0.90
2023-01-31T06:25:10.006Z,-0.90
2023-01-31T06:27:37.418Z,-0.80
2023-01-31T06:30:05.082Z,-0.80
2023-01-31T06:32:32.975Z,-0.90
2023-01-31T06:35:00.156Z,-0.90
2023-01-31T06:37:27.458Z,-0.90
2023-01-31T06:39:54.642Z,-1.00
2023-01-31T06:42:22.172Z,-1.00
2023-01-31T06:44:51.555Z,-1.00
2023-01-31T06:47:20.002Z,-1.00
2023-01-31T06:49:47.208Z,-1.00
2023-01-31T06:52:15.228Z,-1.10
2023-01-31T06:54:45.421Z,-1.10
2023-01-31T06:57:12.618Z,-1.10
2023-01-31T06:59:39.919Z,-1.20
2023-01-31T07:02:07.135Z,-1.10
2023-01-31T07:04:34.329Z,-1.10
2023-01-31T07:07:02.007Z,-1.10
2023-01-31T07:09:29.359Z,-1.10
2023-01-31T07:11:56.884Z,-1.10
2023-01-31T07:14:24.172Z,-1.20
2023-01-31T07:16:51.700Z,-1.20
2023-01-31T07:19:19.234Z,-1.20
2023-01-31T07:21:49.242Z,-1.30
2023-01-31T07:24:17.469Z,-1.30
2023-01-31T07:26:44.918Z,-1.40
2023-01-31T07:29:12.526Z,-1.40
2023-01-31T07:31:40.108Z,-1.40
2023-01-31T07:34:07.308Z,-1.40
2023-01-31T07:36:34.595Z,-1.50
2023-01-31T07:39:02.070Z,-1.50
2023-01-31T07:41:30.082Z,-1.50
2023-01-31T07:43:58.749Z,-1.50
2023-01-31T07:46:25.981Z,-1.50
2023-01-31T07:48:53.258Z,-1.50
2023-01-31T07:51:20.433Z,-1.50
2023-01-31T07:53:47.867Z,-1.60
2023-01-31T07:56:18.098Z,-1.50
2023-01-31T07:58:47.413Z,-1.50
2023-01-31T08:01:44.509Z,-1.40
2023-01-31T08:04:21.570Z,-1.50
2023-01-31T08:06:55.451Z,-1.40
2023-01-31T08:09:25.131Z,-1.40
2023-01-31T08:11:53.474Z,-1.40
2023-01-31T08:14:25.607Z,-1.40
2023-01-31T08:16:53.366Z,-1.30
2023-01-31T08:19:20.787Z,-1.30
2023-01-31T08:21:48.372Z,-1.30
2023-01-31T08:24:15.760Z,-1.20
2023-01-31T08:26:44.437Z,-1.10
2023-01-31T08:29:11.927Z,-1.20
2023-01-31T08:31:41.420Z,-1.20
2023-01-31T08:34:08.918Z,-1.10
2023-01-31T08:36:36.925Z,-1.20
2023-01-31T08:39:05.188Z,-1.10
2023-01-31T08:41:34.133Z,-1.00
2023-01-31T08:44:04.278Z,-1.00
2023-01-31T08:46:34.934Z,-0.90
2023-01-31T08:49:04.515Z,-0.80
2023-01-31T08:51:32.498Z,-0.80
2023-01-31T08:54:00.087Z,-0.70
2023-01-31T08:56:28.186Z,-0.70
2023-01-31T08:58:57.277Z,-0.70
2023-01-31T09:01:25.141Z,-0.60
2023-01-31T09:03:57.407Z,-0.60
2023-01-31T09:06:27.776Z,-0.60
2023-01-31T09:08:59.051Z,-0.50
2023-01-31T09:11:29.166Z,-0.40
2023-01-31T09:13:56.654Z,-0.30
2023-01-31T09:16:24.145Z,-0.30
2023-01-31T09:18:51.895Z,-0.20
2023-01-31T09:21:21.246Z,-0.30
2023-01-31T09:23:49.494Z,-0.20
2023-01-31T09:26:17.447Z,-0.20
2023-01-31T09:28:45.647Z,-0.20
2023-01-31T09:31:15.816Z,-0.20
2023-01-31T09:33:43.629Z,-0.10
2023-01-31T09:36:14.245Z,0.00
2023-01-31T09:38:41.906Z,0.00
2023-01-31T09:41:15.509Z,0.10
2023-01-31T09:43:48.991Z,0.10
2023-01-31T09:46:20.657Z,0.20
2023-01-31T09:48:51.630Z,0.20
2023-01-31T09:51:19.917Z,0.40
2023-01-31T09:53:47.803Z,0.50
2023-01-31T09:56:43.399Z,0.60
2023-01-31T09:59:48.826Z,0.80
2023-01-31T10:02:48.099Z,1.20
2023-01-31T10:05:18.555Z,1.30
2023-01-31T10:08:06.780Z,1.30
2023-01-31T10:10:38.666Z,1.30
2023-01-31T10:13:37.128Z,1.20
2023-01-31T10:16:25.989Z,1.20
2023-01-31T10:19:04.780Z,1.20
2023-01-31T10:21:45.424Z,1.20
2023-01-31T10:24:24.301Z,1.10
2023-01-31T10:26:56.279Z,1.20
2023-01-31T10:29:38.292Z,1.20
2023-01-31T10:32:31.524Z,1.10
2023-01-31T10:35:04.265Z,1.00
2023-01-31T10:37:50.645Z,1.00
2023-01-31T10:40:31.626Z,1.10
2023-01-31T10:43:05.428Z,1.00
2023-01-31T10:45:34.397Z,1.00
2023-01-31T10:48:16.844Z,1.10
2023-01-31T10:50:58.398Z,1.10
2023-01-31T10:53:50.812Z,1.00
2023-01-31T10:56:35.217Z,1.00
2023-01-31T10:59:13.728Z,1.00
2023-01-31T11:01:42.489Z,1.00
2023-01-31T11:04:42.258Z,1.00
2023-01-31T11:07:10.807Z,0.90
2023-01-31T11:09:48.602Z,0.90
2023-01-31T11:12:16.000Z,0.90
2023-01-31T11:14:43.471Z,1.00
2023-01-31T11:17:17.447Z,1.00
2023-01-31T11:19:56.202Z,1.10
2023-01-31T11:22:37.846Z,1.00
2023-01-31T11:25:06.636Z,1.00
2023-01-31T11:27:39.569Z,1.00
2023-01-31T11:30:18.716Z,1.00
2023-01-31T11:32:48.026Z,1.00
2023-01-31T11:35:15.370Z,1.10
2023-01-31T11:37:56.947Z,1.10
2023-01-31T11:40:36.286Z,1.20
2023-01-31T11:43:06.273Z,1.10
2023-01-31T11:45:43.426Z,1.10
2023-01-31T11:48:18.860Z,1.10
2023-01-31T11:50:56.071Z,1.20
2023-01-31T11:53:25.704Z,1.20
2023-01-31T11:55:57.738Z,1.20
2023-01-31T11:58:31.345Z,1.30
2023-01-31T12:01:06.978Z,1.20
2023-01-31T12:03:34.743Z,1.20
2023-01-31T12:06:10.678Z,1.30
2023-01-31T12:08:42.876Z,1.40
2023-01-31T12:11:19.176Z,1.30
2023-01-31T12:13:52.623Z,1.30
2023-01-31T12:16:22.851Z,1.30
2023-01-31T12:19:08.292Z,1.30
2023-01-31T12:21:43.773Z,1.30
2023-01-31T12:24:49.576Z,1.30
2023-01-31T12:27:29.945Z,1.30
2023-01-31T12:30:16.014Z,1.30
2023-01-31T12:32:52.578Z,1.20
2023-01-31T12:36:13.101Z,1.10
2023-01-31T12:38:54.713Z,1.10
2023-01-31T12:41:36.827Z,1.10
2023-01-31T12:44:32.525Z,1.10
2023-01-31T12:47:25.820Z,1.10
2023-01-31T12:50:04.664Z,1.10
2023-01-31T12:53:04.554Z,1.00
2023-01-31T12:55:49.540Z,1.10
2023-01-31T12:58:39.665Z,1.10
2023-01-31T13:01:24.928Z,1.10
2023-01-31T13:04:17.981Z,1.10
2023-01-31T13:06:50.693Z,1.00
2023-01-31T13:09:33.894Z,1.00
2023-01-31T13:12:16.237Z,0.80
2023-01-31T13:14:50.428Z,0.90
2023-01-31T13:17:26.413Z,0.80
2023-01-31T13:20:10.892Z,0.80
2023-01-31T13:22:53.408Z,0.70
2023-01-31T13:25:29.967Z,0.60
2023-01-31T13:28:13.386Z,0.60
2023-01-31T13:31:05.550Z,0.60
2023-01-31T13:33:47.102Z,0.60
2023-01-31T13:36:28.585Z,0.70
2023-01-31T13:38:56.644Z,0.70
2023-01-31T13:41:33.237Z,0.60
2023-01-31T13:44:02.270Z,0.60
2023-01-31T13:46:39.146Z,0.60
2023-01-31T13:49:27.659Z,0.60
2023-01-31T13:51:57.399Z,0.60
2023-01-31T13:54:41.297Z,0.60
2023-01-31T13:57:20.461Z,0.50
2023-01-31T13:59:54.577Z,0.40
2023-01-31T14:02:22.413Z,0.40
2023-01-31T14:04:49.869Z,0.30
2023-01-31T14:07:20.063Z,0.20
2023-01-31T14:09:50.431Z,0.20
2023-01-31T14:12:17.717Z,0.10
2023-01-31T14:14:49.439Z,0.00
2023-01-31T14:17:37.093Z,0.00
2023-01-31T14:20:06.529Z,0.00
2023-01-31T14:22:41.528Z,0.00
2023-01-31T14:25:13.792Z,-0.10
2023-01-31T14:27:46.765Z,-0.10
2023-01-31T14:30:43.562Z,-0.20
2023-01-31T14:33:14.015Z,-0.30
2023-01-31T14:35:59.595Z,-0.40
2023-01-31T14:38:44.996Z,-0.40
2023-01-31T14:41:21.182Z,-0.50
2023-01-31T14:43:54.856Z,-0.60
2023-01-31T14:46:25.408Z,-0.60
2023-01-31T14:49:06.006Z,-0.60
2023-01-31T14:52:11.267Z,-0.70
2023-01-31T14:54:50.864Z,-0.90
2023-01-31T14:57:28.114Z,-1.00
2023-01-31T15:00:15.370Z,-1.00
2023-01-31T15:03:05.995Z,-1.00
2023-01-31T15:05:33.503Z,-1.10
2023-01-31T15:08:09.804Z,-1.10
2023-01-31T15:11:03.015Z,-1.10
2023-01-31T15:13:48.443Z,-1.20
2023-01-31T15:16:32.066Z,-1.20
2023-01-31T15:19:26.831Z,-1.20
2023-01-31T15:22:01.018Z,-1.30
2023-01-31T15:24:40.744Z,-1.30
2023-01-31T15:27:28.790Z,-1.40
2023-01-31T15:30:05.601Z,-1.40
2023-01-31T15:32:46.397Z,-1.50
2023-01-31T15:35:20.427Z,-1.50
2023-01-31T15:37:55.703Z,-1.50
2023-01-31T15:40:26.607Z,-1.50
2023-01-31T15:42:54.104Z,-1.60
2023-01-31T15:45:30.615Z,-1.60
2023-01-31T15:48:06.477Z,-1.70
2023-01-31T15:50:34.938Z,-1.70
2023-01-31T15:53:08.055Z,-1.80
2023-01-31T15:55:37.156Z,-1.80
2023-01-31T15:58:07.195Z,-2.00
2023-01-31T16:00:37.285Z,-2.00
2023-01-31T16:03:08.410Z,-2.20
2023-01-31T16:05:38.718Z,-2.20
2023-01-31T16:08:29.375Z,-2.20
2023-01-31T16:10:58.015Z,-2.30
2023-01-31T16:13:26.859Z,-2.40
2023-01-31T16:15:54.605Z,-2.20
2023-01-31T16:18:22.316Z,-2.30
2023-01-31T16:20:55.633Z,-2.40
2023-01-31T16:23:28.217Z,-2.40
2023-01-31T16:26:09.887Z,-2.30
2023-01-31T16:28:51.629Z,-2.40
2023-01-31T16:31:21.892Z,-2.50
2023-01-31T16:33:58.186Z,-2.60
2023-01-31T16:36:33.742Z,-2.70
2023-01-31T16:39:06.768Z,-2.80
2023-01-31T16:41:45.828Z,-2.70
2023-01-31T16:44:20.097Z,-2.70
2023-01-31T16:46:49.330Z,-2.70
2023-01-31T16:49:28.420Z,-2.80
2023-01-31T16:51:58.853Z,-2.90
2023-01-31T16:54:31.102Z,-2.90
2023-01-31T16:57:06.000Z,-2.90
2023-01-31T16:59:39.586Z,-2.90
2023-01-31T17:02:25.426Z,-2.80
2023-01-31T17:04:55.925Z,-2.90
2023-01-31T17:07:25.446Z,-2.90
2023-01-31T17:09:58.615Z,-2.90
2023-01-31T17:12:32.187Z,-2.90
2023-01-31T17:15:03.389Z,-2.90
2023-01-31T17:17:34.912Z,-2.80
2023-01-31T17:20:02.418Z,-2.80
2023-01-31T17:22:30.347Z,-2.80
2023-01-31T17:24:57.808Z,-2.80
2023-01-31T17:27:25.482Z,-2.80
2023-01-31T17:29:52.933Z,-2.90
2023-01-31T17:32:21.928Z,-2.90
2023-01-31T17:34:49.385Z,-2.90
2023-01-31T17:37:20.905Z,-2.90
2023-01-31T17:39:51.178Z,-2.90
2023-01-31T17:42:21.415Z,-2.90
2023-01-31T17:44:49.243Z,-2.90
2023-01-31T17:47:18.127Z,-2.90
2023-01-31T17:49:45.638Z,-2.90
2023-01-31T17:52:13.252Z,-3.00
2023-01-31T17:54:40.712Z,-3.10
2023-01-31T17:57:08.095Z,-3.00
2023-01-31T17:59:35.525Z,-3.00
2023-01-31T18:02:03.481Z,-3.10
2023-01-31T18:04:31.057Z,-3.10
2023-01-31T18:06:58.507Z,-3.10
2023-01-31T18:09:26.801Z,-3.10
2023-01-31T18:11:54.279Z,-3.10
2023-01-31T18:14:22.116Z,-3.10
2023-01-31T18:16:51.575Z,-3.10
2023-01-31T18:19:19.131Z,-3.10
2023-01-31T18:21:54.449Z,-3.10
2023-01-31T18:24:22.501Z,-3.00
2023-01-31T18:26:49.948Z,-3.00
2023-01-31T18:29:20.064Z,-3.00
2023-01-31T18:31:48.938Z,-3.10
2023-01-31T18:34:17.280Z,-3.20
2023-01-31T18:36:44.753Z,-3.30
2023-01-31T18:39:12.483Z,-3.40
2023-01-31T18:41:39.938Z,-3.50
2023-01-31T18:44:07.579Z,-3.50
2023-01-31T18:46:35.128Z,-3.60
2023-01-31T18:49:02.677Z,-3.70
2023-01-31T18:51:30.188Z,-3.70
2023-01-31T18:53:57.881Z,-3.80
2023-01-31T18:56:25.552Z,-3.80
2023-01-31T18:58:54.605Z,-3.90
2023-01-31T19:01:24.408Z,-3.90
2023-01-31T19:03:53.863Z,-3.90
2023-01-31T19:06:28.832Z,-3.90
2023-01-31T19:08:58.164Z,-4.00
2023-01-31T19:11:28.719Z,-4.00
2023-01-31T19:13:56.733Z,-4.00
2023-01-31T19:16:27.908Z,-4.00
2023-01-31T19:18:56.845Z,-4.00
2023-01-31T19:21:26.889Z,-4.00
2023-01-31T19:23:57.054Z,-4.00
2023-01-31T19:26:24.818Z,-4.10
2023-01-31T19:28:54.636Z,-4.10
2023-01-31T19:31:24.187Z,-4.10
2023-01-31T19:33:54.604Z,-4.10
2023-01-31T19:36:24.755Z,-4.20
2023-01-31T19:38:52.634Z,-4.10
2023-01-31T19:41:22.439Z,-4.10
2023-01-31T19:43:51.234Z,-4.10
2023-01-31T19:46:20.116Z,-4.00
2023-01-31T19:48:48.192Z,-4.00
2023-01-31T19:51:19.162Z,-4.00
2023-01-31T19:53:48.564Z,-4.10
2023-01-31T19:56:17.020Z,-4.10
2023-01-31T19:58:44.757Z,-4.10
2023-01-31T20:01:15.468Z,-4.10
2023-01-31T20:03:44.204Z,-4.20
2023-01-31T20:06:25.482Z,-4.30
2023-01-31T20:08:58.763Z,-4.30
2023-01-31T20:11:28.558Z,-4.20
2023-01-31T20:13:58.115Z,-4.20
2023-01-31T20:16:26.365Z,-4.20
2023-01-31T20:18:56.379Z,-4.30
2023-01-31T20:21:24.752Z,-4.30
2023-01-31T20:23:52.325Z,-4.30
2023-01-31T20:26:22.277Z,-4.30
2023-01-31T20:28:50.091Z,-4.30
2023-01-31T20:31:17.950Z,-4.40
2023-01-31T20:33:45.535Z,-4.40
2023-01-31T20:36:13.773Z,-4.40
2023-01-31T20:38:41.844Z,-4.40
2023-01-31T20:41:09.951Z,-4.40
2023-01-31T20:43:38.558Z,-4.40
2023-01-31T20:46:09.181Z,-4.50
2023-01-31T20:48:37.210Z,-4.50
2023-01-31T20:51:04.900Z,-4.60
2023-01-31T20:53:32.766Z,-4.60
2023-01-31T20:56:05.963Z,-4.60
2023-01-31T20:58:35.638Z,-4.50
2023-01-31T21:01:06.183Z,-4.60
2023-01-31T21:03:35.908Z,-4.60
2023-01-31T21:06:04.622Z,-4.60
2023-01-31T21:08:32.738Z,-4.70
2023-01-31T21:11:03.926Z,-4.70
2023-01-31T21:13:33.382Z,-4.60
2023-01-31T21:16:06.175Z,-4.60
2023-01-31T21:18:36.412Z,-4.60
2023-01-31T21:21:09.445Z,-4.60
2023-01-31T21:23:38.858Z,-4.70
2023-01-31T21:26:08.985Z,-4.70
2023-01-31T21:28:37.433Z,-4.70
2023-01-31T21:31:08.892Z,-4.80
2023-01-31T21:33:36.968Z,-4.80
2023-01-31T21:36:09.307Z,-4.80
2023-01-31T21:38:37.254Z,-4.80
2023-01-31T21:41:23.556Z,-4.80
2023-01-31T21:43:51.100Z,-4.80
2023-01-31T21:46:18.968Z,-4.80
2023-01-31T21:48:46.677Z,-4.80
2023-01-31T21:51:16.044Z,-4.90
2023-01-31T21:53:43.695Z,-4.90
2023-01-31T21:56:14.176Z,-4.80
2023-01-31T21:58:42.191Z,-4.70
2023-01-31T22:01:20.586Z,-4.80
2023-01-31T22:03:50.083Z,-4.90
2023-01-31T22:06:21.221Z,-4.90
2023-01-31T22:08:59.486Z,-4.90
2023-01-31T22:11:28.767Z,-4.90
2023-01-31T22:13:56.431Z,-4.90
2023-01-31T22:16:24.129Z,-4.90
2023-01-31T22:18:52.396Z,-5.00
2023-01-31T22:21:23.521Z,-5.10
2023-01-31T22:23:53.412Z,-5.00
2023-01-31T22:26:24.424Z,-5.00
2023-01-31T22:28:54.053Z,-5.00
2023-01-31T22:31:21.843Z,-5.00
2023-01-31T22:33:50.130Z,-5.10
2023-01-31T22:36:19.194Z,-5.10
2023-01-31T22:38:47.047Z,-5.20
2023-01-31T22:41:18.262Z,-5.20
2023-01-31T22:43:49.854Z,-5.30
2023-01-31T22:46:20.351Z,-5.40
2023-01-31T22:48:49.668Z,-5.40
2023-01-31T22:51:19.575Z,-5.50
2023-01-31T22:53:47.596Z,-5.50
2023-01-31T22:56:23.889Z,-5.60
2023-01-31T22:58:56.800Z,-5.60
2023-01-31T23:01:26.935Z,-5.70
2023-01-31T23:03:59.789Z,-5.60
2023-01-31T23:06:28.705Z,-5.70
2023-01-31T23:08:57.381Z,-5.80
2023-01-31T23:11:25.454Z,-5.70
2023-01-31T23:13:53.098Z,-5.70
2023-01-31T23:16:46.296Z,-5.80
2023-01-31T23:19:14.541Z,-5.90
2023-01-31T23:21:43.001Z,-6.00
2023-01-31T23:24:14.914Z,-6.00
2023-01-31T23:26:43.115Z,-5.90
2023-01-31T23:29:10.790Z,-5.90
2023-01-31T23:31:38.569Z,-6.10
2023-01-31T23:34:07.772Z,-6.20
2023-01-31T23:36:35.686Z,-6.30
2023-01-31T23:39:03.377Z,-6.30
2023-01-31T23:41:31.183Z,-6.30
2023-01-31T23:43:58.544Z,-6.30
2023-01-31T23:46:25.977Z,-6.30
2023-01-31T23:48:53.711Z,-6.30
2023-01-31T23:51:21.265Z,-6.20
2023-01-31T23:53:48.673Z,-6.30
2023-01-31T23:56:16.038Z,-6.30
2023-01-31T23:58:43.431Z,-6.30
